createdAt,value
2018-09-04T00:00:00.159Z,39.40
2018-09-04T00:01:05.981Z,38.77
2018-09-04T00:02:11.473Z,41.60
2018-09-04T00:03:16.966Z,44.63
2018-09-04T00:04:22.888Z,41.97
2018-09-04T00:05:28.396Z,42.23
2018-09-04T00:06:33.827Z,41.27
2018-09-04T00:07:39.293Z,42.13
2018-09-04T00:08:45.010Z,43.63
2018-09-04T00:09:50.952Z,39.33
2018-09-04T00:10:56.481Z,40.50
2018-09-04T00:12:01.913Z,40.33
2018-09-04T00:13:07.344Z,41.40
2018-09-04T00:14:12.785Z,40.00
2018-09-04T00:15:18.309Z,40.67
2018-09-04T00:16:24.098Z,42.13
2018-09-04T00:17:29.635Z,41.27
2018-09-04T00:18:35.105Z,44.90
2018-09-04T00:19:40.745Z,42.83
2018-09-04T00:20:46.271Z,44.63
2018-09-04T00:21:51.742Z,42.03
2018-09-04T00:22:57.258Z,45.97
2018-09-04T00:24:02.925Z,44.20
2018-09-04T00:25:08.465Z,47.60
2018-09-04T00:26:14.046Z,45.07
2018-09-04T00:27:19.503Z,48.20
2018-09-04T00:28:24.960Z,41.60
2018-09-04T00:29:30.485Z,46.03
2018-09-04T00:30:35.884Z,45.37
2018-09-04T00:31:41.591Z,44.93
2018-09-04T00:32:47.078Z,47.90
2018-09-04T00:33:52.555Z,47.37
2018-09-04T00:34:58.038Z,45.10
2018-09-04T00:36:03.510Z,45.57
2018-09-04T00:37:09.098Z,45.10
2018-09-04T00:38:14.601Z,46.60
2018-09-04T00:39:20.002Z,46.50
2018-09-04T00:40:25.425Z,49.93
2018-09-04T00:41:30.888Z,48.00
2018-09-04T00:42:36.473Z,47.20
2018-09-04T00:43:41.877Z,48.27
2018-09-04T00:44:47.337Z,50.70
2018-09-04T00:45:53.388Z,48.63
2018-09-04T00:46:59.253Z,49.40
2018-09-04T00:48:04.679Z,46.07
2018-09-04T00:49:10.230Z,45.07
2018-09-04T00:50:15.689Z,45.77
2018-09-04T00:51:21.159Z,44.27
2018-09-04T00:52:26.640Z,46.90
2018-09-04T00:53:32.136Z,46.80
2018-09-04T00:54:37.589Z,47.57
2018-09-04T00:55:43.064Z,50.50
2018-09-04T00:56:48.638Z,49.43
2018-09-04T00:57:54.136Z,48.30
2018-09-04T00:58:59.916Z,46.23
2018-09-04T01:00:06.128Z,45.07
2018-09-04T01:01:11.600Z,45.43
2018-09-04T01:02:17.050Z,45.70
2018-09-04T01:03:22.533Z,47.20
2018-09-04T01:04:28.357Z,46.43
2018-09-04T01:05:33.892Z,42.37
2018-09-04T01:06:39.410Z,44.90
2018-09-04T01:07:44.886Z,46.80
2018-09-04T01:08:50.368Z,45.10
2018-09-04T01:09:55.825Z,48.07
2018-09-04T01:11:01.430Z,47.60
2018-09-04T01:12:07.118Z,47.00
2018-09-04T01:13:12.591Z,41.77
2018-09-04T01:14:18.104Z,46.90
2018-09-04T01:15:23.532Z,49.07
2018-09-04T01:16:29.018Z,46.13
2018-09-04T01:17:34.482Z,47.60
2018-09-04T01:18:39.920Z,47.30
2018-09-04T01:19:45.897Z,47.37
2018-09-04T01:20:51.341Z,50.10
2018-09-04T01:21:56.832Z,50.93
2018-09-04T01:23:02.347Z,48.03
2018-09-04T01:24:07.788Z,48.37
2018-09-04T01:25:13.300Z,45.70
2018-09-04T01:26:18.800Z,45.20
2018-09-04T01:27:24.352Z,44.00
2018-09-04T01:28:29.793Z,45.03
2018-09-04T01:29:35.273Z,50.57
2018-09-04T01:30:40.873Z,48.30
2018-09-04T01:31:46.412Z,49.00
2018-09-04T01:32:52.162Z,48.50
2018-09-04T01:33:58.435Z,47.30
2018-09-04T01:35:03.921Z,48.13
2018-09-04T01:36:09.340Z,47.60
2018-09-04T01:37:14.817Z,49.47
2018-09-04T01:38:20.434Z,48.20
2018-09-04T01:39:25.985Z,48.70
2018-09-04T01:40:31.625Z,50.67
2018-09-04T01:41:37.088Z,48.10
2018-09-04T01:42:42.574Z,48.00
2018-09-04T01:43:48.090Z,47.00
2018-09-04T01:44:53.573Z,43.20
2018-09-04T01:45:59.027Z,46.77
2018-09-04T01:47:04.608Z,47.57
2018-09-04T01:48:10.037Z,48.20
2018-09-04T01:49:15.480Z,47.73
2018-09-04T01:50:21.045Z,51.43
2018-09-04T01:51:26.655Z,51.20
2018-09-04T01:52:32.149Z,52.10
2018-09-04T01:53:37.752Z,50.60
2018-09-04T01:54:43.225Z,51.70
2018-09-04T01:55:48.837Z,53.30
2018-09-04T01:56:54.400Z,55.73
2018-09-04T01:58:00.065Z,49.13
2018-09-04T01:59:05.771Z,52.00
2018-09-04T02:00:12.045Z,52.97
2018-09-04T02:01:17.736Z,54.67
2018-09-04T02:02:23.236Z,52.90
2018-09-04T02:03:28.668Z,53.53
2018-09-04T02:04:34.093Z,53.40
2018-09-04T02:05:40.014Z,49.00
2018-09-04T02:06:45.498Z,51.00
2018-09-04T02:07:50.897Z,49.43
2018-09-04T02:08:56.373Z,49.27
2018-09-04T02:10:01.865Z,48.90
2018-09-04T02:11:07.542Z,51.20
2018-09-04T02:12:12.991Z,50.50
2018-09-04T02:13:18.600Z,52.77
2018-09-04T02:14:24.411Z,51.23
2018-09-04T02:15:30.063Z,51.60
2018-09-04T02:16:35.600Z,52.97
2018-09-04T02:17:41.173Z,51.27
2018-09-04T02:18:46.589Z,51.93
2018-09-04T02:19:51.988Z,50.60
2018-09-04T02:20:57.441Z,53.53
2018-09-04T02:22:02.912Z,54.10
2018-09-04T02:23:08.373Z,50.70
2018-09-04T02:24:13.841Z,50.70
2018-09-04T02:25:19.308Z,51.07
2018-09-04T02:26:24.884Z,55.87
2018-09-04T02:27:30.408Z,52.97
2018-09-04T02:28:35.816Z,52.40
2018-09-04T02:29:41.341Z,53.80
2018-09-04T02:30:46.848Z,57.67
2018-09-04T02:31:52.308Z,56.57
2018-09-04T02:32:57.832Z,55.40
2018-09-04T02:34:03.293Z,55.77
2018-09-04T02:35:08.745Z,55.70
2018-09-04T02:36:14.287Z,53.60
2018-09-04T02:37:19.659Z,53.20
2018-09-04T02:38:25.163Z,54.20
2018-09-04T02:39:30.729Z,54.93
2018-09-04T02:40:36.367Z,52.80
2018-09-04T02:41:42.033Z,51.43
2018-09-04T02:42:47.505Z,53.53
2018-09-04T02:43:53.118Z,51.63
2018-09-04T02:44:58.578Z,49.73
2018-09-04T02:46:04.277Z,51.87
2018-09-04T02:47:09.813Z,52.10
2018-09-04T02:48:15.252Z,50.20
2018-09-04T02:49:20.721Z,51.97
2018-09-04T02:50:26.250Z,50.80
2018-09-04T02:51:31.686Z,53.07
2018-09-04T02:52:37.097Z,53.73
2018-09-04T02:53:42.697Z,51.57
2018-09-04T02:54:48.144Z,53.77
2018-09-04T02:55:53.642Z,57.63
2018-09-04T02:56:59.069Z,51.60
2018-09-04T02:58:04.512Z,52.40
2018-09-04T02:59:10.073Z,50.13
2018-09-04T03:00:15.544Z,53.27
2018-09-04T03:01:20.970Z,53.33
2018-09-04T03:02:26.852Z,52.60
2018-09-04T03:03:32.352Z,50.53
2018-09-04T03:04:37.837Z,53.27
2018-09-04T03:05:44.206Z,52.37
2018-09-04T03:06:49.720Z,53.10
2018-09-04T03:07:55.698Z,51.50
2018-09-04T03:09:01.164Z,54.17
2018-09-04T03:10:08.076Z,53.80
2018-09-04T03:11:13.532Z,53.90
2018-09-04T03:12:18.941Z,54.17
2018-09-04T03:13:24.437Z,54.07
2018-09-04T03:14:29.893Z,53.07
2018-09-04T03:15:35.438Z,54.47
2018-09-04T03:16:41.013Z,53.07
2018-09-04T03:17:46.613Z,52.63
2018-09-04T03:18:52.260Z,52.13
2018-09-04T03:19:57.714Z,52.43
2018-09-04T03:21:03.289Z,54.73
2018-09-04T03:22:08.860Z,52.37
2018-09-04T03:23:15.045Z,53.00
2018-09-04T03:24:20.490Z,51.60
2018-09-04T03:25:26.013Z,53.93
2018-09-04T03:26:31.453Z,53.43
2018-09-04T03:27:36.884Z,52.40
2018-09-04T03:28:42.456Z,50.40
2018-09-04T03:29:48.062Z,52.53
2018-09-04T03:30:53.996Z,51.50
2018-09-04T03:31:59.372Z,51.40
2018-09-04T03:33:04.809Z,50.50
2018-09-04T03:34:10.277Z,50.60
2018-09-04T03:35:15.745Z,50.70
2018-09-04T03:36:21.343Z,50.67
2018-09-04T03:37:27.161Z,50.47
2018-09-04T03:38:32.840Z,50.63
2018-09-04T03:39:38.365Z,51.00
2018-09-04T03:40:43.882Z,50.73
2018-09-04T03:41:49.475Z,50.43
2018-09-04T03:42:54.958Z,51.03
2018-09-04T03:44:00.577Z,50.00
2018-09-04T03:45:06.582Z,49.90
2018-09-04T03:46:12.181Z,50.73
2018-09-04T03:47:17.633Z,50.97
2018-09-04T03:48:23.127Z,53.73
2018-09-04T03:49:28.682Z,53.23
2018-09-04T03:50:34.177Z,51.50
2018-09-04T03:51:39.739Z,51.33
2018-09-04T03:52:45.249Z,52.93
2018-09-04T03:53:50.688Z,48.13
2018-09-04T03:54:56.130Z,47.13
2018-09-04T03:56:01.626Z,47.57
2018-09-04T03:57:07.040Z,50.80
2018-09-04T03:58:12.528Z,47.13
2018-09-04T03:59:18.042Z,49.83
2018-09-04T04:00:23.602Z,50.73
2018-09-04T04:01:29.204Z,47.10
2018-09-04T04:02:34.655Z,47.43
2018-09-04T04:03:40.103Z,49.53
2018-09-04T04:04:45.580Z,48.20
2018-09-04T04:05:51.197Z,47.07
2018-09-04T04:06:56.626Z,46.97
2018-09-04T04:08:02.041Z,49.53
2018-09-04T04:09:10.649Z,50.87
2018-09-04T04:10:16.077Z,47.70
2018-09-04T04:11:21.545Z,49.73
2018-09-04T04:12:27.094Z,47.90
2018-09-04T04:13:32.534Z,50.57
2018-09-04T04:14:37.985Z,49.60
2018-09-04T04:15:43.647Z,50.13
2018-09-04T04:16:49.100Z,52.90
2018-09-04T04:17:54.559Z,47.57
2018-09-04T04:19:00.065Z,51.30
2018-09-04T04:20:05.699Z,51.30
2018-09-04T04:21:11.256Z,51.93
2018-09-04T04:22:16.698Z,49.17
2018-09-04T04:23:22.314Z,46.40
2018-09-04T04:24:27.760Z,47.70
2018-09-04T04:25:33.265Z,49.00
2018-09-04T04:26:38.957Z,47.90
2018-09-04T04:27:44.494Z,46.43
2018-09-04T04:28:50.032Z,47.00
2018-09-04T04:29:55.518Z,44.90
2018-09-04T04:31:01.012Z,47.40
2018-09-04T04:32:06.678Z,46.87
2018-09-04T04:33:12.230Z,48.20
2018-09-04T04:34:17.836Z,46.17
2018-09-04T04:35:23.360Z,46.97
2018-09-04T04:36:29.185Z,45.30
2018-09-04T04:37:34.844Z,47.23
2018-09-04T04:38:40.369Z,47.87
2018-09-04T04:39:45.802Z,48.20
2018-09-04T04:40:51.269Z,48.13
2018-09-04T04:41:56.952Z,46.03
2018-09-04T04:43:02.417Z,46.67
2018-09-04T04:44:08.145Z,48.83
2018-09-04T04:45:13.689Z,45.73
2018-09-04T04:46:19.149Z,46.50
2018-09-04T04:47:29.710Z,45.07
2018-09-04T04:48:35.203Z,45.83
2018-09-04T04:49:40.690Z,44.27
2018-09-04T04:50:46.145Z,43.93
2018-09-04T04:51:51.593Z,45.60
2018-09-04T04:52:57.044Z,47.80
2018-09-04T04:54:02.517Z,45.77
2018-09-04T04:55:08.061Z,46.37
2018-09-04T04:56:13.492Z,45.83
2018-09-04T04:57:18.959Z,47.57
2018-09-04T04:58:24.452Z,45.50
2018-09-04T04:59:29.972Z,44.40
2018-09-04T05:00:35.404Z,45.80
2018-09-04T05:01:40.922Z,46.40
2018-09-04T05:02:46.501Z,43.23
2018-09-04T05:03:51.971Z,44.20
2018-09-04T05:04:57.610Z,44.20
2018-09-04T05:06:03.249Z,42.23
2018-09-04T05:07:08.719Z,42.43
2018-09-04T05:08:14.620Z,44.03
2018-09-04T05:09:20.301Z,43.50
2018-09-04T05:10:25.796Z,44.40
2018-09-04T05:11:31.289Z,44.17
2018-09-04T05:12:36.907Z,44.83
2018-09-04T05:13:42.455Z,42.93
2018-09-04T05:14:47.949Z,45.00
2018-09-04T05:15:53.420Z,43.30
2018-09-04T05:16:58.961Z,44.60
2018-09-04T05:18:04.418Z,43.40
2018-09-04T05:19:10.169Z,44.63
2018-09-04T05:20:19.249Z,44.30
2018-09-04T05:21:24.710Z,43.90
2018-09-04T05:22:30.242Z,43.60
2018-09-04T05:23:35.689Z,45.27
2018-09-04T05:24:41.205Z,45.17
2018-09-04T05:25:46.641Z,43.70
2018-09-04T05:26:52.389Z,40.20
2018-09-04T05:27:57.854Z,45.03
2018-09-04T05:29:03.341Z,42.27
2018-09-04T05:30:08.908Z,41.30
2018-09-04T05:31:14.586Z,40.67
2018-09-04T05:33:29.191Z,41.97
2018-09-04T05:34:34.754Z,40.43
2018-09-04T05:35:43.755Z,41.30
2018-09-04T05:36:49.225Z,39.87
2018-09-04T05:37:54.904Z,40.20
2018-09-04T05:39:00.358Z,41.90
2018-09-04T05:40:06.317Z,41.23
2018-09-04T05:41:11.725Z,41.20
2018-09-04T05:42:22.276Z,37.70
2018-09-04T05:43:32.275Z,42.40
2018-09-04T05:44:37.809Z,38.83
2018-09-04T05:45:43.329Z,37.23
2018-09-04T05:46:51.210Z,38.87
2018-09-04T05:48:05.160Z,38.43
2018-09-04T05:49:11.121Z,39.23
2018-09-04T05:50:16.705Z,39.97
2018-09-04T05:51:22.277Z,47.93
2018-09-04T05:52:27.776Z,40.60
2018-09-04T05:53:33.362Z,38.63
2018-09-04T05:54:39.065Z,39.27
2018-09-04T05:55:44.561Z,37.73
2018-09-04T05:56:49.980Z,37.30
2018-09-04T05:57:55.594Z,38.30
2018-09-04T05:59:01.090Z,38.67
2018-09-04T06:00:10.629Z,38.57
2018-09-04T06:01:16.134Z,39.80
2018-09-04T06:02:22.116Z,35.97
2018-09-04T06:03:27.706Z,36.20
2018-09-04T06:04:33.281Z,37.37
2018-09-04T06:05:38.829Z,38.50
2018-09-04T06:06:44.296Z,39.47
2018-09-04T06:07:49.814Z,38.63
2018-09-04T06:08:55.421Z,39.07
2018-09-04T06:10:00.861Z,38.40
2018-09-04T06:11:06.339Z,39.23
2018-09-04T06:12:11.904Z,39.53
2018-09-04T06:13:17.353Z,36.90
2018-09-04T06:14:22.750Z,36.50
2018-09-04T06:15:28.312Z,38.40
2018-09-04T06:16:33.749Z,36.20
2018-09-04T06:17:39.405Z,37.03
2018-09-04T06:18:44.848Z,34.97
2018-09-04T06:19:50.268Z,35.50
2018-09-04T06:20:55.714Z,35.40
2018-09-04T06:22:01.190Z,36.27
2018-09-04T06:23:07.234Z,36.03
2018-09-04T06:24:12.644Z,35.87
2018-09-04T06:25:18.125Z,35.53
2018-09-04T06:26:23.604Z,35.33
2018-09-04T06:27:29.127Z,35.57
2018-09-04T06:28:34.533Z,35.53
2018-09-04T06:29:40.178Z,36.63
2018-09-04T06:30:45.468Z,35.53
2018-09-04T06:31:50.876Z,35.60
2018-09-04T06:32:56.265Z,36.53
2018-09-04T06:34:01.867Z,35.67
2018-09-04T06:35:07.661Z,34.67
2018-09-04T06:36:13.396Z,36.43
2018-09-04T06:37:18.938Z,35.40
2018-09-04T06:38:24.376Z,33.63
2018-09-04T06:39:29.901Z,32.07
2018-09-04T06:40:35.380Z,34.23
2018-09-04T06:41:40.944Z,33.67
2018-09-04T06:42:46.502Z,34.10
2018-09-04T06:43:51.881Z,34.57
2018-09-04T06:44:57.421Z,34.83
2018-09-04T06:46:03.082Z,33.13
2018-09-04T06:47:08.469Z,32.23
2018-09-04T06:48:13.969Z,32.70
2018-09-04T06:49:19.372Z,34.47
2018-09-04T06:50:24.786Z,36.00
2018-09-04T06:51:30.194Z,35.63
2018-09-04T06:52:35.886Z,33.70
2018-09-04T06:53:41.337Z,34.47
2018-09-04T06:54:46.918Z,36.17
2018-09-04T06:55:52.356Z,34.83
2018-09-04T06:56:58.015Z,34.67
2018-09-04T06:58:03.465Z,33.60
2018-09-04T06:59:09.022Z,33.23
2018-09-04T07:00:15.072Z,33.93
2018-09-04T07:01:20.667Z,31.43
2018-09-04T07:02:26.171Z,32.23
2018-09-04T07:03:31.596Z,33.57
2018-09-04T07:04:37.068Z,33.13
2018-09-04T07:05:42.562Z,34.00
2018-09-04T07:06:48.252Z,32.90
2018-09-04T07:07:53.688Z,34.07
2018-09-04T07:08:59.338Z,35.00
2018-09-04T07:10:04.996Z,32.47
2018-09-04T07:11:10.416Z,35.30
2018-09-04T07:12:15.870Z,35.37
2018-09-04T07:13:21.293Z,34.23
2018-09-04T07:14:26.693Z,33.17
2018-09-04T07:15:32.200Z,34.33
2018-09-04T07:16:37.625Z,35.37
2018-09-04T07:17:43.091Z,34.10
2018-09-04T07:18:48.652Z,34.43
2018-09-04T07:19:54.169Z,35.13
2018-09-04T07:20:59.695Z,35.00
2018-09-04T07:22:05.271Z,33.53
2018-09-04T07:23:10.678Z,35.50
2018-09-04T07:24:16.767Z,36.83
2018-09-04T07:25:22.406Z,33.97
2018-09-04T07:26:27.872Z,32.90
2018-09-04T07:27:33.352Z,35.07
2018-09-04T07:28:38.737Z,34.40
2018-09-04T07:29:44.132Z,36.33
2018-09-04T07:30:49.847Z,35.87
2018-09-04T07:31:55.259Z,35.17
2018-09-04T07:33:00.812Z,35.00
2018-09-04T07:34:06.664Z,35.40
2018-09-04T07:35:12.154Z,36.63
2018-09-04T07:36:17.585Z,34.93
2018-09-04T07:37:22.993Z,36.40
2018-09-04T07:38:28.465Z,36.90
2018-09-04T07:39:33.908Z,35.50
2018-09-04T07:40:39.531Z,35.53
2018-09-04T07:41:45.052Z,36.90
2018-09-04T07:42:50.500Z,35.43
2018-09-04T07:43:56.253Z,35.20
2018-09-04T07:45:02.156Z,35.77
2018-09-04T07:46:07.643Z,35.07
2018-09-04T07:47:13.081Z,35.13
2018-09-04T07:48:18.536Z,37.60
2018-09-04T07:49:23.996Z,38.30
2018-09-04T07:50:29.538Z,36.10
2018-09-04T07:51:35.124Z,37.87
2018-09-04T07:52:40.475Z,36.67
2018-09-04T07:53:45.998Z,38.13
2018-09-04T07:54:51.509Z,37.17
2018-09-04T07:55:57.217Z,36.10
2018-09-04T07:57:02.652Z,39.40
2018-09-04T07:58:08.073Z,38.70
2018-09-04T07:59:13.602Z,39.20
2018-09-04T08:00:19.097Z,37.13
2018-09-04T08:01:24.563Z,40.90
2018-09-04T08:02:30.118Z,39.43
2018-09-04T08:03:35.552Z,37.83
2018-09-04T08:04:41.031Z,41.27
2018-09-04T08:05:46.516Z,40.57
2018-09-04T08:06:51.913Z,40.43
2018-09-04T08:07:57.509Z,40.00
2018-09-04T08:09:03.035Z,42.30
2018-09-04T08:10:08.582Z,43.00
2018-09-04T08:11:14.142Z,43.53
2018-09-04T08:12:19.645Z,41.83
2018-09-04T08:13:25.212Z,45.87
2018-09-04T08:14:30.939Z,41.90
2018-09-04T08:15:36.952Z,44.20
2018-09-04T08:16:42.469Z,44.60
2018-09-04T08:17:48.138Z,45.13
2018-09-04T08:18:53.626Z,46.87
2018-09-04T08:19:59.110Z,47.00
2018-09-04T08:21:04.838Z,44.40
2018-09-04T08:22:11.019Z,46.73
2018-09-04T08:23:16.499Z,44.50
2018-09-04T08:24:21.921Z,46.47
2018-09-04T08:25:27.896Z,44.77
2018-09-04T08:26:33.327Z,45.90
2018-09-04T08:27:38.805Z,44.20
2018-09-04T08:28:44.221Z,45.47
2018-09-04T08:29:49.776Z,45.23
2018-09-04T08:30:55.176Z,45.10
2018-09-04T08:32:00.762Z,43.67
2018-09-04T08:33:06.297Z,43.87
2018-09-04T08:34:11.677Z,43.80
2018-09-04T08:35:17.217Z,42.93
2018-09-04T08:36:22.738Z,43.87
2018-09-04T08:37:28.157Z,46.00
2018-09-04T08:38:37.637Z,43.93
2018-09-04T08:39:43.092Z,44.13
2018-09-04T08:40:48.526Z,43.40
2018-09-04T08:41:54.039Z,44.10
2018-09-04T08:42:59.642Z,44.13
2018-09-04T08:44:05.280Z,45.70
2018-09-04T08:45:10.717Z,45.60
2018-09-04T08:46:16.506Z,45.93
2018-09-04T08:47:22.403Z,45.87
2018-09-04T08:48:27.905Z,46.60
2018-09-04T08:49:33.619Z,46.77
2018-09-04T08:50:39.087Z,47.40
2018-09-04T08:51:44.486Z,46.50
2018-09-04T08:52:49.936Z,46.23
2018-09-04T08:53:55.377Z,42.80
2018-09-04T08:55:00.973Z,45.20
2018-09-04T08:56:06.741Z,47.00
2018-09-04T08:57:12.219Z,46.57
2018-09-04T08:58:17.730Z,47.07
2018-09-04T08:59:23.173Z,47.70
2018-09-04T09:00:28.709Z,47.33
2018-09-04T09:01:34.208Z,48.60
2018-09-04T09:02:39.628Z,46.77
2018-09-04T09:03:45.145Z,47.83
2018-09-04T09:04:50.547Z,44.67
2018-09-04T09:05:55.941Z,48.50
2018-09-04T09:07:01.631Z,46.67
2018-09-04T09:08:07.274Z,47.60
2018-09-04T09:09:13.190Z,45.30
2018-09-04T09:10:18.775Z,47.90
2018-09-04T09:11:24.160Z,44.87
2018-09-04T09:12:29.760Z,45.97
2018-09-04T09:13:35.181Z,48.00
2018-09-04T09:14:40.715Z,45.83
2018-09-04T09:15:46.286Z,47.50
2018-09-04T09:16:51.779Z,46.33
2018-09-04T09:17:57.457Z,46.37
2018-09-04T09:19:02.896Z,46.20
2018-09-04T09:20:08.473Z,46.77
2018-09-04T09:21:13.870Z,43.80
2018-09-04T09:22:19.429Z,45.27
2018-09-04T09:23:24.880Z,44.77
2018-09-04T09:24:30.358Z,46.70
2018-09-04T09:25:36.212Z,46.90
2018-09-04T09:26:41.766Z,45.10
2018-09-04T09:27:47.316Z,43.57
2018-09-04T09:28:52.905Z,46.43
2018-09-04T09:29:58.409Z,44.17
2018-09-04T09:31:03.957Z,44.97
2018-09-04T09:32:09.437Z,44.07
2018-09-04T09:33:14.892Z,42.50
2018-09-04T09:34:20.346Z,45.60
2018-09-04T09:35:25.772Z,45.20
2018-09-04T09:36:31.393Z,44.87
2018-09-04T09:37:36.807Z,44.13
2018-09-04T09:38:42.266Z,45.57
2018-09-04T09:39:47.789Z,44.33
2018-09-04T09:40:53.349Z,44.07
2018-09-04T09:41:58.849Z,46.87
2018-09-04T09:43:04.413Z,45.77
2018-09-04T09:44:09.962Z,45.47
2018-09-04T09:45:15.408Z,44.57
2018-09-04T09:46:20.897Z,43.07
2018-09-04T09:47:26.338Z,45.40
2018-09-04T09:48:38.049Z,43.40
2018-09-04T09:49:43.658Z,44.20
2018-09-04T09:50:49.231Z,43.33
2018-09-04T09:51:54.769Z,44.87
2018-09-04T09:53:00.230Z,43.30
2018-09-04T09:54:05.732Z,44.57
2018-09-04T09:55:11.519Z,43.63
2018-09-04T09:56:17.012Z,40.90
2018-09-04T09:57:22.719Z,43.50
2018-09-04T09:58:28.234Z,42.73
2018-09-04T09:59:34.718Z,41.90
2018-09-04T10:00:45.277Z,40.77
2018-09-04T10:01:53.573Z,44.20
2018-09-04T10:03:04.241Z,39.50
2018-09-04T10:04:10.093Z,41.50
2018-09-04T10:05:15.557Z,42.23
2018-09-04T10:06:21.792Z,40.07
2018-09-04T10:07:27.297Z,40.97
2018-09-04T10:08:32.895Z,42.10
2018-09-04T10:09:38.558Z,39.53
2018-09-04T10:10:44.015Z,41.60
2018-09-04T10:11:49.480Z,42.40
2018-09-04T10:12:55.210Z,42.73
2018-09-04T10:14:00.709Z,41.23
2018-09-04T10:15:06.595Z,40.23
2018-09-04T10:16:12.045Z,40.80
2018-09-04T10:17:17.506Z,43.27
2018-09-04T10:18:23.052Z,43.93
2018-09-04T10:19:28.533Z,40.80
2018-09-04T10:20:34.090Z,43.70
2018-09-04T10:21:39.605Z,44.63
2018-09-04T10:22:45.441Z,43.43
2018-09-04T10:23:50.913Z,44.17
2018-09-04T10:24:56.819Z,44.50
2018-09-04T10:26:02.452Z,44.97
2018-09-04T10:27:08.200Z,41.50
2018-09-04T10:28:13.702Z,41.43
2018-09-04T10:29:19.333Z,41.67
2018-09-04T10:30:24.772Z,42.03
2018-09-04T10:31:30.352Z,41.03
2018-09-04T10:32:35.985Z,40.87
2018-09-04T10:33:41.545Z,40.80
2018-09-04T10:34:47.040Z,40.03
2018-09-04T10:35:52.558Z,38.57
2018-09-04T10:36:58.121Z,40.30
2018-09-04T10:38:03.719Z,36.60
2018-09-04T10:39:14.640Z,39.17
2018-09-04T10:40:25.365Z,39.73
2018-09-04T10:41:30.893Z,38.77
2018-09-04T10:42:36.495Z,37.57
2018-09-04T10:43:42.188Z,37.77
2018-09-04T10:44:47.966Z,36.60
2018-09-04T10:45:58.596Z,37.07
2018-09-04T10:47:04.165Z,35.97
2018-09-04T10:48:20.642Z,32.40
2018-09-04T10:49:26.085Z,31.17
2018-09-04T10:50:31.733Z,34.17
2018-09-04T10:51:37.209Z,33.87
2018-09-04T10:52:42.929Z,33.43
2018-09-04T10:53:48.578Z,30.80
2018-09-04T10:54:54.373Z,32.60
2018-09-04T10:56:00.117Z,36.33
2018-09-04T10:57:05.845Z,34.30
2018-09-04T10:58:11.472Z,35.50
2018-09-04T10:59:16.949Z,33.00
2018-09-04T11:00:22.414Z,34.30
2018-09-04T11:01:28.267Z,34.60
2018-09-04T11:02:33.766Z,34.10
2018-09-04T11:03:39.805Z,32.93
2018-09-04T11:04:45.403Z,31.80
2018-09-04T11:05:50.997Z,31.93
2018-09-04T11:06:56.539Z,30.13
2018-09-04T11:08:01.980Z,28.80
2018-09-04T11:09:10.673Z,27.93
2018-09-04T11:10:16.293Z,29.30
2018-09-04T11:11:21.849Z,33.90
2018-09-04T11:12:27.459Z,29.20
2018-09-04T11:13:32.970Z,26.80
2018-09-04T11:14:38.424Z,22.20
2018-09-04T11:15:44.112Z,21.00
2018-09-04T11:16:49.581Z,21.17
2018-09-04T11:17:55.000Z,22.73
2018-09-04T11:19:00.899Z,21.40
2018-09-04T11:20:06.461Z,23.27
2018-09-04T11:21:11.928Z,20.00
2018-09-04T11:22:17.400Z,17.47
2018-09-04T11:23:22.944Z,17.70
2018-09-04T11:24:28.377Z,18.43
2018-09-04T11:25:33.843Z,27.20
2018-09-04T11:26:39.378Z,29.17
2018-09-04T11:27:44.798Z,25.70
2018-09-04T11:28:55.448Z,18.70
2018-09-04T11:30:01.029Z,19.93
2018-09-04T11:31:06.665Z,26.50
2018-09-04T11:32:12.171Z,23.70
2018-09-04T11:33:17.585Z,23.67
2018-09-04T11:34:22.972Z,24.10
2018-09-04T11:35:28.409Z,21.60
2018-09-04T11:36:33.906Z,20.60
2018-09-04T11:37:39.496Z,22.60
2018-09-04T11:38:44.965Z,24.03
2018-09-04T11:39:50.506Z,21.87
2018-09-04T11:40:56.025Z,24.97
2018-09-04T11:42:01.557Z,24.53
2018-09-04T11:43:07.645Z,22.17
2018-09-04T11:44:13.085Z,23.07
2018-09-04T11:45:18.837Z,23.23
2018-09-04T11:46:24.317Z,22.27
2018-09-04T11:47:30.269Z,24.27
2018-09-04T11:48:39.329Z,24.87
2018-09-04T11:49:45.256Z,24.40
2018-09-04T11:50:51.015Z,28.27
2018-09-04T11:51:56.594Z,23.40
2018-09-04T11:53:02.114Z,24.33
2018-09-04T11:54:07.946Z,23.10
2018-09-04T11:55:13.538Z,20.73
2018-09-04T11:56:20.520Z,23.60
2018-09-04T11:57:26.106Z,24.20
2018-09-04T11:58:32.625Z,20.27
2018-09-04T11:59:38.306Z,23.70
2018-09-04T12:00:45.957Z,22.70
2018-09-04T12:01:55.475Z,22.33
2018-09-04T12:03:01.065Z,22.27
2018-09-04T12:04:06.844Z,22.43
2018-09-04T12:05:12.565Z,24.13
2018-09-04T12:06:18.105Z,24.50
2018-09-04T12:07:23.674Z,23.83
2018-09-04T12:08:29.261Z,23.60
2018-09-04T12:09:34.780Z,22.30
2018-09-04T12:10:40.903Z,27.73
2018-09-04T12:11:53.498Z,27.00
2018-09-04T12:12:59.264Z,26.37
2018-09-04T12:14:04.912Z,28.23
2018-09-04T12:15:10.418Z,24.43
2018-09-04T12:16:16.058Z,26.63
2018-09-04T12:17:21.744Z,26.77
2018-09-04T12:18:28.493Z,33.27
2018-09-04T12:19:49.226Z,29.13
2018-09-04T12:20:56.698Z,28.80
2018-09-04T12:22:02.202Z,31.13
2018-09-04T12:23:07.965Z,30.73
2018-09-04T12:24:13.515Z,30.00
2018-09-04T12:25:19.192Z,27.67
2018-09-04T12:26:24.779Z,28.27
2018-09-04T12:27:30.576Z,26.43
2018-09-04T12:28:36.122Z,28.63
2018-09-04T12:29:41.816Z,25.53
2018-09-04T12:30:47.297Z,25.93
2018-09-04T12:31:53.242Z,25.80
2018-09-04T12:32:59.145Z,24.60
2018-09-04T12:34:05.209Z,21.80
2018-09-04T12:35:10.684Z,22.10
2018-09-04T12:36:16.350Z,20.37
2018-09-04T12:37:22.239Z,21.40
2018-09-04T12:38:32.393Z,20.47
2018-09-04T12:39:40.289Z,19.97
2018-09-04T12:40:46.301Z,20.97
2018-09-04T12:41:52.165Z,21.27
2018-09-04T12:42:57.840Z,21.60
2018-09-04T12:44:03.822Z,19.83
2018-09-04T12:45:09.832Z,22.27
2018-09-04T12:46:15.540Z,18.17
2018-09-04T12:47:21.336Z,21.60
2018-09-04T12:48:28.053Z,21.20
2018-09-04T12:49:33.448Z,21.20
2018-09-04T12:50:39.102Z,20.43
2018-09-04T12:51:44.569Z,21.20
2018-09-04T12:52:50.219Z,19.57
2018-09-04T12:53:55.684Z,20.43
2018-09-04T12:55:01.377Z,20.47
2018-09-04T12:56:07.119Z,20.33
2018-09-04T12:57:12.578Z,18.80
2018-09-04T12:58:18.160Z,17.17
2018-09-04T12:59:23.854Z,19.67
2018-09-04T13:00:29.479Z,18.17
2018-09-04T13:01:35.049Z,19.10
2018-09-04T13:02:41.038Z,18.50
2018-09-04T13:03:46.480Z,19.17
2018-09-04T13:04:52.146Z,18.53
2018-09-04T13:05:57.913Z,18.70
2018-09-04T13:07:03.532Z,18.13
2018-09-04T13:08:09.567Z,15.77
2018-09-04T13:09:14.986Z,19.20
2018-09-04T13:10:20.440Z,17.53
2018-09-04T13:11:26.115Z,16.57
2018-09-04T13:12:31.781Z,18.70
2018-09-04T13:13:37.533Z,17.57
2018-09-04T13:14:43.384Z,16.97
2018-09-04T13:15:51.233Z,17.10
2018-09-04T13:17:00.419Z,17.27
2018-09-04T13:18:06.277Z,16.37
2018-09-04T13:19:12.102Z,17.80
2018-09-04T13:20:17.680Z,15.97
2018-09-04T13:21:24.313Z,15.80
2018-09-04T13:22:29.884Z,16.20
2018-09-04T13:23:36.273Z,16.27
2018-09-04T13:24:42.002Z,16.60
2018-09-04T13:25:47.646Z,15.50
2018-09-04T13:26:53.562Z,14.27
2018-09-04T13:27:59.403Z,15.80
2018-09-04T13:29:04.970Z,15.83
2018-09-04T13:30:10.516Z,15.17
2018-09-04T13:31:16.356Z,15.60
2018-09-04T13:32:21.911Z,14.03
2018-09-04T13:33:27.745Z,14.20
2018-09-04T13:34:33.515Z,14.13
2018-09-04T13:35:39.252Z,13.20
2018-09-04T13:36:51.596Z,13.23
2018-09-04T13:37:57.364Z,14.07
2018-09-04T13:39:03.072Z,14.83
2018-09-04T13:40:08.888Z,14.77
2018-09-04T13:41:14.541Z,14.70
2018-09-04T13:42:20.095Z,14.30
2018-09-04T13:43:25.740Z,14.33
2018-09-04T13:44:31.346Z,12.80
2018-09-04T13:45:36.922Z,13.87
2018-09-04T13:46:42.428Z,11.30
2018-09-04T13:47:48.045Z,10.90
2018-09-04T13:48:53.768Z,11.60
2018-09-04T13:49:59.693Z,12.43
2018-09-04T13:51:05.390Z,11.17
2018-09-04T13:52:10.962Z,14.30
2018-09-04T13:53:16.561Z,13.80
2018-09-04T13:54:55.636Z,14.07
2018-09-04T13:56:01.285Z,13.47
2018-09-04T13:57:07.065Z,13.00
2018-09-04T13:58:12.740Z,13.40
2018-09-04T13:59:18.307Z,13.30
2018-09-04T14:00:25.050Z,12.17
2018-09-04T14:01:30.863Z,12.80
2018-09-04T14:02:36.490Z,14.77
2018-09-04T14:03:41.912Z,12.67
2018-09-04T14:04:47.343Z,13.77
2018-09-04T14:05:53.153Z,12.40
2018-09-04T14:06:58.625Z,12.97
2018-09-04T14:08:04.204Z,13.63